Time;durP1;ratioP1;P1;durP2;ratioP2;P2;SDS_P1;SDS_P2;PMS_P1;PMS_P2;Temp;Humidity;BMP_temperature;BMP_pressure;BME280_temperature;BME280_humidity;BME280_pressure;Samples;Min_cycle;Max_cycle;Signal;HPM_P1;HPM_P2
2023/03/29 00:00:24;;;;;;;6.28;4.00;;;6.00;99.90;;;;;;5084390;28;20039;-37
2023/03/29 00:02:50;;;;;;;4.75;3.70;;;5.90;99.90;;;;;;5069907;28;20039;-36
2023/03/29 00:05:18;;;;;;;5.35;4.03;;;5.90;99.90;;;;;;5085017;28;20040;-37
2023/03/29 00:07:44;;;;;;;5.90;3.70;;;5.90;99.90;;;;;;5068425;28;20044;-37
2023/03/29 00:10:11;;;;;;;6.53;4.15;;;5.90;99.90;;;;;;5069468;28;20047;-36
2023/03/29 00:12:40;;;;;;;4.70;4.13;;;5.90;99.90;;;;;;5071279;28;20122;-37
2023/03/29 00:15:07;;;;;;;6.25;4.05;;;6.00;99.90;;;;;;5067758;28;20051;-37
2023/03/29 00:17:33;;;;;;;8.15;4.68;;;5.90;99.90;;;;;;5051772;28;20037;-37
2023/03/29 00:19:59;;;;;;;8.18;4.60;;;5.90;99.90;;;;;;5052783;28;20067;-37
2023/03/29 00:22:25;;;;;;;5.20;4.63;;;5.90;99.90;;;;;;5053759;28;20028;-36
2023/03/29 00:24:54;;;;;;;5.78;4.50;;;5.90;99.90;;;;;;5063162;28;20805;-36
2023/03/29 00:27:20;;;;;;;5.63;4.57;;;5.80;99.90;;;;;;5054905;28;20498;-37
2023/03/29 00:29:47;;;;;;;5.72;4.60;;;5.90;99.90;;;;;;5057891;28;20040;-36
2023/03/29 00:32:13;;;;;;;5.82;4.63;;;5.90;99.90;;;;;;5062806;28;20078;-37
2023/03/29 00:34:41;;;;;;;7.40;4.63;;;5.80;99.90;;;;;;5053846;28;20525;-37
2023/03/29 00:37:08;;;;;;;6.75;4.75;;;5.80;99.90;;;;;;5069705;28;20333;-37
2023/03/29 00:39:35;;;;;;;5.85;4.82;;;5.90;99.90;;;;;;5059654;28;20041;-37
2023/03/29 00:42:01;;;;;;;5.40;4.38;;;5.80;99.90;;;;;;5054806;28;20045;-37
2023/03/29 00:44:52;;;;;;;5.88;4.45;;;5.80;99.90;;;;;;5056187;28;20043;-37
2023/03/29 00:47:23;;;;;;;5.93;4.85;;;5.80;99.90;;;;;;5061917;28;20060;-37
2023/03/29 00:49:51;;;;;;;5.95;4.97;;;5.80;99.90;;;;;;5056580;28;20075;-36
2023/03/29 00:52:20;;;;;;;5.47;4.63;;;5.70;99.90;;;;;;5057321;28;20043;-36
2023/03/29 00:54:48;;;;;;;7.68;5.30;;;5.80;99.90;;;;;;5061383;28;20049;-37
2023/03/29 00:57:16;;;;;;;5.35;4.55;;;5.80;99.90;;;;;;5065882;28;20052;-37
2023/03/29 00:59:43;;;;;;;6.93;4.50;;;5.80;99.90;;;;;;5055737;28;20036;-36
2023/03/29 01:02:10;;;;;;;6.32;4.78;;;5.90;99.90;;;;;;5063269;28;20044;-37
2023/03/29 01:04:47;;;;;;;8.98;4.80;;;5.80;99.90;;;;;;5074918;28;20036;-36
2023/03/29 01:07:16;;;;;;;6.25;4.32;;;5.80;99.90;;;;;;5077484;28;20047;-37
2023/03/29 01:09:47;;;;;;;6.55;4.85;;;5.70;99.90;;;;;;5058913;28;20083;-37
2023/03/29 01:12:18;;;;;;;5.82;4.70;;;5.80;99.90;;;;;;5076853;28;20534;-35
2023/03/29 01:14:50;;;;;;;7.90;4.93;;;5.70;99.90;;;;;;5064970;28;20114;-33
2023/03/29 01:17:20;;;;;;;5.47;4.82;;;5.80;99.90;;;;;;5071345;28;20517;-33
2023/03/29 01:19:56;;;;;;;5.10;4.57;;;5.80;99.90;;;;;;5070903;28;20040;-34
2023/03/29 01:22:30;;;;;;;7.55;4.60;;;5.80;99.90;;;;;;5071194;28;20032;-34
2023/03/29 01:25:25;;;;;;;6.28;4.82;;;5.70;99.90;;;;;;5067300;28;20580;-33
2023/03/29 01:28:04;;;;;;;7.03;5.32;;;5.80;99.90;;;;;;5051224;28;20482;-33
2023/03/29 01:30:50;;;;;;;5.88;4.72;;;5.80;99.90;;;;;;5050892;28;20041;-33
2023/03/29 01:33:22;;;;;;;7.28;4.65;;;5.80;99.90;;;;;;5051133;28;20049;-33
2023/03/29 01:36:02;;;;;;;6.85;5.22;;;5.70;99.90;;;;;;5059636;28;20051;-33
2023/03/29 01:38:44;;;;;;;6.93;5.22;;;5.80;99.90;;;;;;5071109;28;20044;-33
2023/03/29 01:41:11;;;;;;;8.80;6.03;;;5.70;99.90;;;;;;5070769;28;20040;-33
2023/03/29 01:44:04;;;;;;;7.20;5.63;;;5.70;99.90;;;;;;5070735;28;20045;-33
2023/03/29 01:46:41;;;;;;;10.48;6.10;;;5.70;99.90;;;;;;5070797;28;20539;-33
2023/03/29 01:49:34;;;;;;;8.82;6.13;;;5.70;99.90;;;;;;5071023;28;20032;-33
2023/03/29 01:52:10;;;;;;;8.32;6.40;;;5.70;99.90;;;;;;5070922;28;20508;-34
2023/03/29 01:54:48;;;;;;;9.50;6.75;;;5.80;99.90;;;;;;5070535;28;20042;-34
2023/03/29 01:57:15;;;;;;;10.57;7.68;;;5.80;99.90;;;;;;5070917;28;20444;-34
2023/03/29 01:59:43;;;;;;;9.73;6.88;;;5.80;99.90;;;;;;5070924;28;20052;-34
2023/03/29 02:02:13;;;;;;;11.05;7.15;;;5.70;99.90;;;;;;5053806;28;20102;-34
2023/03/29 02:04:48;;;;;;;10.63;7.75;;;5.80;99.90;;;;;;5070820;28;20538;-33
2023/03/29 02:07:18;;;;;;;11.60;7.72;;;5.70;99.90;;;;;;5070404;28;20128;-33
2023/03/29 02:09:45;;;;;;;10.85;7.88;;;5.70;99.90;;;;;;5070773;28;20094;-33
2023/03/29 02:12:14;;;;;;;12.02;8.20;;;5.90;99.90;;;;;;5070678;28;20063;-34
2023/03/29 02:14:40;;;;;;;13.35;8.60;;;5.70;99.90;;;;;;5070360;28;20414;-34
2023/03/29 02:17:20;;;;;;;12.73;8.65;;;5.80;99.90;;;;;;5070677;28;20043;-34
2023/03/29 02:19:49;;;;;;;11.13;8.98;;;5.80;99.90;;;;;;5070314;28;20063;-34
2023/03/29 02:22:29;;;;;;;12.27;8.95;;;5.80;99.90;;;;;;5070581;28;20043;-34
2023/03/29 02:24:57;;;;;;;12.80;9.43;;;5.90;99.90;;;;;;5070293;28;20040;-33
2023/03/29 02:27:26;;;;;;;12.30;9.13;;;5.80;99.90;;;;;;5070274;28;20040;-33
2023/03/29 02:29:52;;;;;;;12.15;9.10;;;5.90;99.90;;;;;;5070536;28;20045;-34
2023/03/29 02:32:32;;;;;;;15.45;9.93;;;5.80;99.90;;;;;;5070166;28;20482;-33
2023/03/29 02:35:11;;;;;;;14.98;9.55;;;5.80;99.90;;;;;;5051114;28;20040;-33
2023/03/29 02:37:39;;;;;;;15.90;10.23;;;5.90;99.90;;;;;;5055290;28;20041;-33
2023/03/29 02:40:06;;;;;;;14.60;9.75;;;5.70;99.90;;;;;;5074139;28;20040;-34
2023/03/29 02:42:34;;;;;;;14.52;9.38;;;5.80;99.90;;;;;;5073552;28;20028;-33
2023/03/29 02:45:01;;;;;;;17.77;11.13;;;5.90;99.90;;;;;;5074070;28;20489;-34
2023/03/29 02:47:40;;;;;;;17.00;11.07;;;5.80;99.90;;;;;;5074020;28;20129;-33
2023/03/29 02:50:07;;;;;;;13.90;10.00;;;5.90;99.90;;;;;;5073950;28;20089;-33
2023/03/29 02:52:39;;;;;;;17.23;11.55;;;5.80;99.90;;;;;;5074114;28;20378;-33
2023/03/29 02:55:10;;;;;;;15.52;10.80;;;5.90;99.90;;;;;;5071843;28;20375;-33
2023/03/29 02:57:38;;;;;;;14.27;11.18;;;5.80;99.90;;;;;;5054087;28;20513;-33
2023/03/29 03:00:08;;;;;;;17.33;11.32;;;5.80;99.90;;;;;;5053961;28;20508;-33
2023/03/29 03:02:34;;;;;;;17.85;11.35;;;5.80;99.90;;;;;;5053514;28;20037;-33
2023/03/29 03:05:00;;;;;;;19.08;11.70;;;5.80;99.90;;;;;;5053485;28;20045;-33
2023/03/29 03:07:27;;;;;;;16.42;11.23;;;5.90;99.90;;;;;;5053602;28;20132;-33
2023/03/29 03:09:53;;;;;;;15.38;10.98;;;5.80;99.90;;;;;;5053839;28;20288;-33
2023/03/29 03:12:19;;;;;;;14.82;11.48;;;5.90;99.90;;;;;;5053728;28;20041;-33
2023/03/29 03:14:44;;;;;;;16.85;10.45;;;5.80;99.90;;;;;;5068268;28;20486;-33
2023/03/29 03:17:10;;;;;;;15.43;10.15;;;5.90;99.90;;;;;;5073228;28;20040;-33
2023/03/29 03:19:36;;;;;;;15.68;11.07;;;5.80;99.90;;;;;;5055433;28;20048;-33
2023/03/29 03:22:04;;;;;;;14.95;11.20;;;5.90;99.90;;;;;;5053080;28;20044;-34
2023/03/29 03:24:31;;;;;;;17.02;11.13;;;6.00;99.90;;;;;;5053430;28;20519;-33
2023/03/29 03:26:57;;;;;;;18.38;12.32;;;6.00;99.90;;;;;;5053452;28;20036;-33
2023/03/29 03:29:24;;;;;;;17.23;11.15;;;5.90;99.90;;;;;;5053362;28;20382;-33
2023/03/29 03:31:51;;;;;;;18.15;11.63;;;6.00;99.90;;;;;;5053367;28;20452;-33
2023/03/29 03:34:18;;;;;;;15.85;11.73;;;5.90;99.90;;;;;;5053266;28;20041;-33
2023/03/29 03:36:47;;;;;;;15.85;12.25;;;5.90;99.90;;;;;;5058069;28;20064;-33
2023/03/29 03:39:13;;;;;;;17.45;11.43;;;5.90;99.90;;;;;;5073205;28;20452;-33
2023/03/29 03:41:39;;;;;;;17.00;11.50;;;5.90;99.90;;;;;;5073074;28;20036;-33
2023/03/29 03:44:05;;;;;;;17.67;11.45;;;5.90;99.90;;;;;;5072925;28;20127;-33
2023/03/29 03:46:31;;;;;;;15.13;11.02;;;6.00;99.90;;;;;;5071586;28;20468;-33
2023/03/29 03:48:58;;;;;;;19.75;12.48;;;5.90;99.90;;;;;;5072729;28;20076;-34
2023/03/29 03:51:24;;;;;;;15.35;11.27;;;5.90;99.90;;;;;;5072830;28;20389;-34
2023/03/29 03:53:50;;;;;;;17.40;11.75;;;5.90;99.90;;;;;;5073445;28;20313;-34
2023/03/29 03:56:16;;;;;;;14.45;11.05;;;5.90;99.90;;;;;;5072956;28;20111;-34
2023/03/29 03:58:42;;;;;;;14.98;11.63;;;5.90;99.90;;;;;;5055791;28;20040;-33
2023/03/29 04:01:08;;;;;;;17.88;12.30;;;6.00;99.90;;;;;;5072362;28;20524;-34
2023/03/29 04:03:36;;;;;;;14.63;11.23;;;6.00;99.90;;;;;;5072747;28;20421;-34
2023/03/29 04:06:02;;;;;;;16.25;11.63;;;6.00;99.90;;;;;;5072347;28;20119;-34
2023/03/29 04:08:29;;;;;;;18.20;11.63;;;5.90;99.90;;;;;;5072278;28;20040;-34
2023/03/29 04:10:57;;;;;;;18.95;11.77;;;6.00;99.90;;;;;;5072511;28;20075;-34
2023/03/29 04:13:23;;;;;;;14.60;10.50;;;6.00;99.90;;;;;;5072509;28;20037;-33
2023/03/29 04:15:52;;;;;;;15.20;11.27;;;6.00;99.90;;;;;;5072068;28;20036;-33
2023/03/29 04:18:20;;;;;;;14.75;11.80;;;6.00;99.90;;;;;;5072400;28;20182;-34
2023/03/29 04:20:46;;;;;;;15.93;10.77;;;6.00;99.90;;;;;;5072129;28;20048;-33
2023/03/29 04:23:13;;;;;;;17.25;11.02;;;6.00;99.90;;;;;;5072200;28;20041;-34
2023/03/29 04:25:39;;;;;;;16.52;11.55;;;5.90;99.90;;;;;;5071859;28;20043;-33
2023/03/29 04:28:05;;;;;;;16.63;11.73;;;6.00;99.90;;;;;;5072283;28;20506;-33
2023/03/29 04:30:31;;;;;;;15.73;11.15;;;6.00;99.90;;;;;;5072208;28;20040;-34
2023/03/29 04:32:57;;;;;;;15.52;11.43;;;5.90;99.90;;;;;;5071760;28;20087;-34
2023/03/29 04:35:22;;;;;;;14.63;11.27;;;6.10;99.90;;;;;;5072999;28;20123;-34
2023/03/29 04:37:50;;;;;;;16.20;11.35;;;6.10;99.90;;;;;;5072214;28;20454;-34
2023/03/29 04:40:18;;;;;;;16.58;11.32;;;5.90;99.90;;;;;;5071753;28;20123;-34
2023/03/29 04:42:46;;;;;;;21.67;11.75;;;6.00;99.90;;;;;;5071917;28;20044;-34
2023/03/29 04:45:18;;;;;;;15.45;11.27;;;6.00;99.90;;;;;;5071524;28;20102;-34
2023/03/29 04:47:45;;;;;;;15.05;11.40;;;6.00;99.90;;;;;;5071883;28;20047;-34
2023/03/29 04:50:11;;;;;;;15.35;11.23;;;6.10;99.90;;;;;;5071889;28;20524;-34
2023/03/29 04:52:37;;;;;;;15.00;10.98;;;6.00;99.90;;;;;;5071662;28;20036;-33
2023/03/29 04:55:04;;;;;;;14.32;11.38;;;6.00;99.90;;;;;;5071633;28;20457;-34
2023/03/29 04:57:30;;;;;;;16.50;10.90;;;6.10;99.90;;;;;;5071375;28;20378;-34
2023/03/29 04:59:56;;;;;;;16.02;11.60;;;6.10;99.90;;;;;;5055733;28;20099;-34
2023/03/29 05:02:22;;;;;;;15.50;11.60;;;6.00;99.90;;;;;;5051139;28;20088;-34
2023/03/29 05:04:48;;;;;;;16.88;11.10;;;6.00;99.90;;;;;;5055619;28;20106;-34
2023/03/29 05:07:14;;;;;;;17.33;11.23;;;6.00;99.90;;;;;;5071279;28;20127;-34
2023/03/29 05:09:41;;;;;;;14.23;11.02;;;6.00;99.90;;;;;;5060132;28;20045;-34
2023/03/29 05:12:07;;;;;;;17.42;11.73;;;5.90;99.90;;;;;;5060920;28;20398;-34
2023/03/29 05:14:33;;;;;;;14.07;10.98;;;6.00;99.90;;;;;;5056798;28;20033;-34
2023/03/29 05:17:00;;;;;;;15.02;11.90;;;6.00;99.90;;;;;;5053432;28;20036;-33
2023/03/29 05:19:26;;;;;;;15.18;12.02;;;5.80;99.90;;;;;;5071359;28;20041;-33
2023/03/29 05:21:52;;;;;;;17.33;11.75;;;6.00;99.90;;;;;;5071408;28;20032;-33
2023/03/29 05:24:19;;;;;;;17.70;11.77;;;6.00;99.90;;;;;;5071310;28;20094;-33
2023/03/29 05:26:46;;;;;;;16.92;11.98;;;5.90;99.90;;;;;;5071201;28;20505;-33
2023/03/29 05:29:12;;;;;;;15.70;11.70;;;6.00;99.90;;;;;;5052233;28;20102;-33
2023/03/29 05:31:39;;;;;;;16.95;12.07;;;6.00;99.90;;;;;;5051104;28;20544;-34
2023/03/29 05:34:05;;;;;;;16.60;12.70;;;5.90;99.90;;;;;;5052002;28;20132;-34
2023/03/29 05:36:32;;;;;;;16.08;11.77;;;5.90;99.90;;;;;;5034237;28;20040;-34
2023/03/29 05:38:58;;;;;;;16.30;11.88;;;5.90;99.90;;;;;;5050755;28;20052;-33
2023/03/29 05:41:25;;;;;;;17.10;11.85;;;5.60;99.90;;;;;;5034131;28;20049;-33
2023/03/29 05:43:50;;;;;;;14.50;11.77;;;5.90;99.90;;;;;;5050535;28;20129;-33
2023/03/29 05:46:16;;;;;;;14.93;11.48;;;5.90;99.90;;;;;;5052479;28;20426;-33
2023/03/29 05:48:42;;;;;;;19.73;12.68;;;6.00;99.90;;;;;;5049579;28;20033;-33
2023/03/29 05:51:08;;;;;;;16.20;11.73;;;6.00;99.90;;;;;;5050099;28;20055;-33
2023/03/29 05:53:35;;;;;;;15.18;11.98;;;5.90;99.90;;;;;;5056868;28;20032;-33
2023/03/29 05:56:01;;;;;;;17.55;12.70;;;6.00;99.90;;;;;;5070868;28;20158;-34
2023/03/29 05:58:27;;;;;;;18.65;13.68;;;5.90;99.90;;;;;;5052959;28;20127;-33
2023/03/29 06:00:53;;;;;;;15.52;11.48;;;5.90;99.90;;;;;;5050868;28;20134;-34
2023/03/29 06:03:24;;;;;;;16.38;12.45;;;6.00;99.90;;;;;;5065426;28;20508;-33
2023/03/29 06:06:01;;;;;;;18.52;13.30;;;6.00;99.90;;;;;;5070472;28;20033;-31
2023/03/29 06:08:27;;;;;;;16.60;12.48;;;5.90;99.90;;;;;;5070519;28;20182;-31
2023/03/29 06:11:01;;;;;;;17.00;12.63;;;5.70;99.90;;;;;;5073417;28;20409;-32
2023/03/29 06:13:28;;;;;;;18.98;12.38;;;6.00;99.90;;;;;;5076017;28;20194;-31
2023/03/29 06:15:53;;;;;;;15.38;11.40;;;5.90;99.90;;;;;;5074731;28;20041;-32
2023/03/29 06:18:19;;;;;;;16.00;12.45;;;6.00;99.90;;;;;;5074689;28;20497;-34
2023/03/29 06:20:50;;;;;;;15.65;12.00;;;5.90;99.90;;;;;;5074691;28;20375;-31
2023/03/29 06:23:16;;;;;;;12.82;11.13;;;5.90;99.90;;;;;;5074401;28;20494;-34
2023/03/29 06:25:43;;;;;;;16.63;12.45;;;6.10;99.90;;;;;;5074498;28;20037;-31
2023/03/29 06:28:10;;;;;;;18.02;11.90;;;6.00;99.90;;;;;;5074440;28;20067;-32
2023/03/29 06:30:37;;;;;;;15.35;11.10;;;6.10;99.90;;;;;;5074162;28;20039;-33
2023/03/29 06:33:05;;;;;;;15.35;10.88;;;6.00;99.90;;;;;;5073866;28;20440;-33
2023/03/29 06:35:33;;;;;;;15.63;11.10;;;6.20;99.90;;;;;;5073941;28;20037;-33
2023/03/29 06:37:59;;;;;;;13.98;11.15;;;6.10;99.90;;;;;;5073121;28;20052;-32
2023/03/29 06:40:26;;;;;;;16.92;11.32;;;6.20;99.90;;;;;;5073685;28;20050;-32
2023/03/29 06:42:56;;;;;;;13.18;10.73;;;6.10;99.90;;;;;;5069203;28;20067;-34
2023/03/29 06:45:26;;;;;;;13.07;10.48;;;6.30;99.90;;;;;;5064651;28;20074;-33
2023/03/29 06:47:52;;;;;;;14.20;10.45;;;6.20;99.90;;;;;;5073846;28;20045;-34
2023/03/29 06:50:19;;;;;;;14.68;10.48;;;6.30;99.90;;;;;;5073877;28;20040;-33
2023/03/29 06:52:46;;;;;;;16.55;10.73;;;6.40;99.90;;;;;;5074091;28;20040;-33
2023/03/29 06:55:12;;;;;;;14.35;10.73;;;6.40;99.90;;;;;;5073616;28;20048;-33
2023/03/29 06:57:39;;;;;;;15.10;11.00;;;6.50;99.90;;;;;;5074023;28;20040;-33
2023/03/29 07:00:15;;;;;;;13.98;10.32;;;6.50;99.90;;;;;;5075201;28;20123;-33
2023/03/29 07:02:41;;;;;;;17.23;10.50;;;6.60;99.90;;;;;;5073787;28;20043;-32
2023/03/29 07:05:10;;;;;;;12.27;9.70;;;6.70;99.90;;;;;;5073875;28;20490;-34
2023/03/29 07:07:56;;;;;;;15.48;10.75;;;6.60;99.90;;;;;;5073619;28;20043;-33
2023/03/29 07:10:31;;;;;;;13.40;9.80;;;6.70;99.90;;;;;;5073447;28;20074;-33
2023/03/29 07:12:58;;;;;;;12.68;10.63;;;6.70;99.90;;;;;;5073368;28;20122;-33
2023/03/29 07:15:25;;;;;;;13.52;9.75;;;6.80;99.90;;;;;;5073330;28;20044;-32
2023/03/29 07:17:50;;;;;;;13.23;9.60;;;6.70;99.90;;;;;;5073338;28;20047;-34
2023/03/29 07:20:16;;;;;;;13.82;10.02;;;6.80;99.90;;;;;;5073342;28;20040;-34
2023/03/29 07:22:43;;;;;;;12.20;9.98;;;6.90;99.90;;;;;;5073233;28;20043;-33
2023/03/29 07:25:11;;;;;;;15.95;9.90;;;6.90;99.90;;;;;;5073061;28;20036;-33
2023/03/29 07:27:38;;;;;;;13.35;9.50;;;6.90;99.90;;;;;;5073498;28;20032;-34
2023/03/29 07:30:09;;;;;;;12.80;9.68;;;6.80;99.90;;;;;;5073307;28;20115;-34
2023/03/29 07:32:40;;;;;;;14.68;9.68;;;7.00;99.90;;;;;;5073397;28;20037;-34
2023/03/29 07:35:07;;;;;;;12.88;9.57;;;6.90;99.90;;;;;;5061758;28;20040;-34
2023/03/29 07:37:36;;;;;;;13.05;9.38;;;6.90;99.90;;;;;;5056361;28;20505;-33
2023/03/29 07:40:07;;;;;;;14.65;9.23;;;6.90;99.90;;;;;;5073133;28;20436;-32
2023/03/29 07:42:40;;;;;;;9.85;8.45;;;6.90;99.90;;;;;;5073117;28;20036;-33
2023/03/29 07:45:07;;;;;;;12.77;9.27;;;6.90;99.90;;;;;;5056046;28;20040;-33
2023/03/29 07:47:33;;;;;;;12.30;8.95;;;7.00;99.90;;;;;;5072846;28;20039;-33
2023/03/29 07:50:00;;;;;;;14.88;9.50;;;7.00;99.90;;;;;;5073073;28;20367;-34
2023/03/29 07:52:27;;;;;;;12.30;8.88;;;7.10;99.90;;;;;;5072968;28;20393;-34
2023/03/29 07:54:54;;;;;;;9.73;8.63;;;7.00;99.90;;;;;;5055843;28;20044;-31
2023/03/29 07:57:21;;;;;;;10.05;8.38;;;7.10;99.90;;;;;;5064438;28;20110;-34
2023/03/29 07:59:47;;;;;;;12.30;9.13;;;7.20;99.90;;;;;;5052644;28;20041;-33
2023/03/29 08:02:13;;;;;;;11.27;8.98;;;7.20;99.90;;;;;;5052655;28;20036;-31
2023/03/29 08:04:39;;;;;;;14.13;9.00;;;7.30;99.90;;;;;;5067731;28;20040;-32
2023/03/29 08:07:05;;;;;;;12.40;8.95;;;7.30;99.90;;;;;;5072232;28;20033;-32
2023/03/29 08:09:33;;;;;;;11.35;8.63;;;7.30;99.90;;;;;;5062068;28;20041;-32
2023/03/29 08:11:59;;;;;;;12.77;9.35;;;7.50;99.90;;;;;;5052572;28;20044;-33
2023/03/29 08:14:26;;;;;;;13.93;8.35;;;7.40;99.90;;;;;;5051930;28;20138;-32
2023/03/29 08:16:52;;;;;;;11.45;8.77;;;7.50;99.90;;;;;;5060363;28;20378;-32
2023/03/29 08:19:18;;;;;;;11.13;9.02;;;7.50;99.90;;;;;;5072001;28;20044;-32
2023/03/29 08:21:43;;;;;;;12.23;8.10;;;7.70;99.90;;;;;;5072248;28;20124;-33
2023/03/29 08:24:10;;;;;;;10.02;8.50;;;7.70;99.90;;;;;;5072378;28;20511;-33
2023/03/29 08:26:36;;;;;;;10.40;8.10;;;7.70;99.90;;;;;;5072190;28;20043;-33
2023/03/29 08:29:02;;;;;;;11.02;8.45;;;7.70;99.90;;;;;;5057170;28;20036;-33
2023/03/29 08:31:28;;;;;;;11.18;7.70;;;7.80;99.90;;;;;;5052503;28;20037;-33
2023/03/29 08:33:54;;;;;;;9.82;8.38;;;8.00;99.90;;;;;;5051766;28;20521;-34
2023/03/29 08:36:20;;;;;;;10.88;8.13;;;8.00;99.90;;;;;;5051823;28;20063;-33
2023/03/29 08:38:46;;;;;;;12.45;9.05;;;8.10;99.90;;;;;;5052060;28;20562;-33
2023/03/29 08:41:31;;;;;;;10.27;8.10;;;8.20;99.90;;;;;;5052759;28;20072;-33
2023/03/29 08:44:16;;;;;;;12.18;8.38;;;8.30;99.90;;;;;;5072205;28;20119;-34
2023/03/29 08:46:47;;;;;;;9.13;7.85;;;8.30;99.90;;;;;;5071915;28;20059;-33
2023/03/29 08:49:13;;;;;;;10.35;7.88;;;8.40;99.90;;;;;;5068519;28;20120;-34
2023/03/29 08:51:51;;;;;;;10.35;6.85;;;8.50;99.90;;;;;;5052670;28;20568;-35
2023/03/29 08:54:23;;;;;;;9.57;7.18;;;8.60;99.90;;;;;;5053977;28;20037;-35
2023/03/29 08:56:52;;;;;;;9.82;7.60;;;8.70;99.90;;;;;;5053735;28;20037;-34
2023/03/29 08:59:30;;;;;;;9.52;7.55;;;8.70;99.90;;;;;;5055452;28;20044;-33
2023/03/29 09:01:59;;;;;;;14.07;7.70;;;8.80;99.90;;;;;;5054325;28;20036;-33
2023/03/29 09:04:39;;;;;;;9.65;7.40;;;9.00;99.90;;;;;;5037468;28;20036;-34
2023/03/29 09:07:10;;;;;;;9.23;7.07;;;9.10;99.90;;;;;;5054355;28;20445;-33
2023/03/29 09:09:37;;;;;;;8.88;6.53;;;9.20;99.90;;;;;;5053704;28;20075;-34
2023/03/29 09:12:15;;;;;;;8.70;6.88;;;9.30;99.90;;;;;;5054826;28;20095;-35
2023/03/29 09:14:42;;;;;;;10.23;7.00;;;9.30;99.90;;;;;;5053850;28;20080;-35
2023/03/29 09:17:30;;;;;;;8.02;6.80;;;9.50;99.90;;;;;;5053150;28;20041;-34
2023/03/29 09:20:22;;;;;;;8.85;6.78;;;9.50;99.90;;;;;;5053577;28;20044;-34
2023/03/29 09:23:01;;;;;;;9.80;7.47;;;9.60;99.90;;;;;;5062352;28;20043;-34
2023/03/29 09:25:46;;;;;;;9.90;7.18;;;9.60;99.90;;;;;;5074978;28;20114;-34
2023/03/29 09:28:40;;;;;;;12.50;8.32;;;9.60;99.90;;;;;;5073314;28;20029;-34
2023/03/29 09:31:17;;;;;;;10.43;6.57;;;9.70;99.90;;;;;;5052864;28;20049;-34
2023/03/29 09:33:58;;;;;;;8.13;6.90;;;9.70;99.90;;;;;;5053633;28;20033;-35
2023/03/29 09:36:51;;;;;;;9.18;7.10;;;9.70;99.90;;;;;;5053097;28;20502;-34
2023/03/29 09:39:19;;;;;;;9.48;5.90;;;9.80;99.90;;;;;;5053363;28;20048;-33
2023/03/29 09:41:58;;;;;;;8.02;6.50;;;9.90;99.90;;;;;;5053330;28;20076;-33
2023/03/29 09:44:30;;;;;;;10.65;7.03;;;9.80;99.90;;;;;;5067356;28;20044;-34
2023/03/29 09:47:17;;;;;;;11.25;7.25;;;10.00;99.90;;;;;;5072938;28;20036;-33
2023/03/29 09:49:46;;;;;;;8.55;7.00;;;10.20;99.90;;;;;;5073911;28;20044;-34
2023/03/29 09:52:15;;;;;;;9.50;6.60;;;10.30;99.90;;;;;;5074177;28;20094;-34
2023/03/29 09:54:42;;;;;;;9.27;7.35;;;10.30;99.90;;;;;;5072648;28;20054;-35
2023/03/29 09:57:13;;;;;;;8.82;7.03;;;10.20;99.90;;;;;;5073003;28;20597;-34
2023/03/29 09:59:40;;;;;;;9.98;7.35;;;10.20;99.90;;;;;;5073039;28;20040;-34
2023/03/29 10:02:12;;;;;;;11.35;7.32;;;10.20;99.90;;;;;;5073038;28;20119;-35
2023/03/29 10:04:41;;;;;;;14.18;7.70;;;10.30;99.90;;;;;;5072865;28;20102;-35
2023/03/29 10:07:12;;;;;;;11.68;8.27;;;10.40;99.90;;;;;;5074326;28;20047;-34
2023/03/29 10:09:43;;;;;;;10.27;8.40;;;10.40;99.90;;;;;;5073188;28;20510;-34
2023/03/29 10:12:14;;;;;;;10.30;7.93;;;10.50;99.90;;;;;;5072987;28;20575;-34
2023/03/29 10:14:44;;;;;;;13.73;7.70;;;10.60;99.90;;;;;;5072609;28;20102;-34
2023/03/29 10:17:20;;;;;;;10.63;8.27;;;10.60;99.90;;;;;;5072838;28;20403;-35
2023/03/29 10:20:06;;;;;;;12.40;8.45;;;10.60;99.90;;;;;;5073981;28;20071;-34
2023/03/29 10:22:40;;;;;;;11.05;8.43;;;10.80;99.90;;;;;;5074151;28;20571;-34
2023/03/29 10:25:13;;;;;;;12.00;8.88;;;10.80;99.90;;;;;;5073294;28;20041;-34
2023/03/29 10:27:43;;;;;;;14.38;9.02;;;10.90;99.90;;;;;;5073656;28;20083;-35
2023/03/29 10:30:20;;;;;;;13.18;9.18;;;10.80;99.90;;;;;;5052287;28;20044;-34
2023/03/29 10:32:52;;;;;;;13.50;9.50;;;10.90;99.90;;;;;;5053343;28;20076;-35
2023/03/29 10:35:32;;;;;;;14.88;9.32;;;10.80;99.90;;;;;;5052367;28;20076;-34
2023/03/29 10:38:02;;;;;;;11.40;8.52;;;11.00;99.90;;;;;;5053070;28;20048;-35
2023/03/29 10:40:31;;;;;;;11.07;8.90;;;11.00;99.90;;;;;;5053037;28;20128;-34
2023/03/29 10:43:11;;;;;;;11.65;8.55;;;11.10;99.90;;;;;;5053992;28;20267;-34
2023/03/29 10:45:41;;;;;;;10.68;8.55;;;11.20;99.90;;;;;;5052618;28;20468;-34
2023/03/29 10:48:18;;;;;;;11.10;8.63;;;11.30;99.90;;;;;;5053235;28;20072;-33
2023/03/29 10:50:49;;;;;;;11.80;8.30;;;11.60;99.90;;;;;;5052763;28;20048;-33
2023/03/29 10:53:24;;;;;;;12.52;8.95;;;11.60;99.90;;;;;;5066065;28;20446;-34
2023/03/29 10:56:11;;;;;;;12.57;8.63;;;12.00;99.90;;;;;;5072771;28;20032;-35
2023/03/29 10:59:00;;;;;;;10.98;8.23;;;12.10;99.90;;;;;;5076429;28;20413;-34
2023/03/29 11:01:50;;;;;;;12.35;8.23;;;12.20;99.90;;;;;;5077323;28;20055;-34
2023/03/29 11:04:47;;;;;;;11.20;8.27;;;12.30;99.90;;;;;;5076967;28;20113;-35
2023/03/29 11:07:21;;;;;;;11.07;7.68;;;12.40;99.90;;;;;;5075874;28;20444;-34
2023/03/29 11:10:00;;;;;;;8.82;7.82;;;12.60;99.90;;;;;;5075756;28;20040;-34
2023/03/29 11:12:42;;;;;;;12.50;9.02;;;12.70;99.90;;;;;;5055963;28;20555;-34
2023/03/29 11:15:32;;;;;;;11.00;7.88;;;12.90;99.90;;;;;;5055335;28;20055;-34
2023/03/29 11:18:08;;;;;;;8.40;7.57;;;12.90;99.90;;;;;;5056192;28;20044;-34
2023/03/29 11:20:41;;;;;;;12.55;7.57;;;13.10;99.90;;;;;;5055820;28;20045;-34
2023/03/29 11:23:34;;;;;;;;;;;13.20;99.90;;;;;;5063401;28;20049;-34
2023/03/29 11:26:15;;;;;;;10.18;7.32;;;13.20;99.90;;;;;;5071018;28;19943;-34
2023/03/29 11:29:03;;;;;;;8.50;7.68;;;13.50;99.90;;;;;;5076507;28;20037;-34
2023/03/29 11:31:59;;;;;;;10.02;7.45;;;13.40;99.90;;;;;;5059355;28;20123;-35
2023/03/29 11:35:00;;;;;;;10.40;8.00;;;13.30;99.90;;;;;;5060318;28;20064;-34
2023/03/29 11:37:50;;;;;;;9.73;8.32;;;13.30;99.90;;;;;;5075524;28;20033;-33
2023/03/29 11:41:13;;;;;;;10.70;7.75;;;13.40;99.90;;;;;;5075667;28;20497;-34
2023/03/29 11:43:53;;;;;;;9.77;6.95;;;13.80;99.90;;;;;;5036942;28;20075;-34
2023/03/29 11:46:43;;;;;;;8.05;7.10;;;13.70;99.90;;;;;;5073911;28;20048;-34
2023/03/29 11:49:09;;;;;;;8.10;6.63;;;13.70;99.90;;;;;;5056372;28;20056;-34
2023/03/29 11:51:41;;;;;;;9.20;7.53;;;13.90;99.90;;;;;;5056447;28;20100;-34
2023/03/29 11:54:17;;;;;;;9.55;6.80;;;14.20;99.90;;;;;;5055949;28;20128;-33
2023/03/29 11:56:51;;;;;;;8.93;7.60;;;14.20;99.90;;;;;;5055183;28;20045;-35
2023/03/29 11:59:22;;;;;;;9.07;7.25;;;14.30;99.90;;;;;;5054624;28;20048;-35
2023/03/29 12:01:55;;;;;;;10.65;7.18;;;14.10;99.90;;;;;;5073615;28;20048;-34
2023/03/29 12:04:37;;;;;;;10.10;7.57;;;14.30;99.90;;;;;;5057784;28;20079;-34
2023/03/29 12:07:14;;;;;;;9.30;7.00;;;14.60;99.90;;;;;;5074416;28;20037;-33
2023/03/29 12:09:48;;;;;;;8.43;6.78;;;14.60;99.90;;;;;;5074539;28;20075;-34
2023/03/29 12:12:44;;;;;;;8.63;7.35;;;14.90;99.90;;;;;;5074798;28;20098;-34
2023/03/29 12:15:23;;;;;;;7.50;6.72;;;14.60;99.90;;;;;;5070697;28;20479;-34
2023/03/29 12:18:01;;;;;;;9.25;7.47;;;14.80;99.90;;;;;;5056250;28;20049;-34
2023/03/29 12:20:35;;;;;;;9.07;7.85;;;14.80;99.90;;;;;;5054847;28;20589;-35
2023/03/29 12:23:01;;;;;;;7.93;7.13;;;14.60;99.90;;;;;;5054755;28;20033;-34
2023/03/29 12:25:36;;;;;;;8.02;7.22;;;14.70;99.90;;;;;;5056141;28;20187;-35
2023/03/29 12:28:22;;;;;;;8.50;7.47;;;14.40;99.90;;;;;;5057188;28;20067;-34
2023/03/29 12:31:16;;;;;;;10.10;7.82;;;14.20;99.90;;;;;;5057090;28;20072;-34
2023/03/29 12:34:07;;;;;;;9.63;7.65;;;14.40;99.90;;;;;;5054839;28;20032;-34
2023/03/29 12:37:05;;;;;;;9.13;7.78;;;14.40;99.90;;;;;;5054233;28;20120;-34
2023/03/29 12:39:34;;;;;;;11.40;7.53;;;14.40;99.90;;;;;;5054091;28;20036;-34
2023/03/29 12:42:13;;;;;;;8.05;7.15;;;14.80;99.90;;;;;;5055571;28;20124;-34
2023/03/29 12:44:44;;;;;;;12.27;8.27;;;14.70;99.90;;;;;;5053604;28;20128;-34
2023/03/29 12:47:22;;;;;;;9.45;7.75;;;14.70;99.90;;;;;;5054111;28;20036;-34
2023/03/29 12:49:56;;;;;;;10.57;7.93;;;14.60;99.90;;;;;;5054084;28;20045;-35
2023/03/29 12:52:30;;;;;;;8.88;7.03;;;14.70;99.90;;;;;;5062364;28;20112;-34
2023/03/29 12:54:57;;;;;;;;;;;14.60;99.90;;;;;;5054597;28;20048;-34
2023/03/29 12:57:39;;;;;;;8.43;7.35;;;14.70;99.90;;;;;;5054140;28;19917;-34
2023/03/29 13:00:41;;;;;;;9.75;8.48;;;14.60;99.90;;;;;;5223737;22;20095;-35
2023/03/29 13:03:21;;;;;;;11.05;8.32;;;14.50;99.90;;;;;;5028597;28;20046;-36
2023/03/29 13:05:59;;;;;;;8.68;7.63;;;14.60;99.90;;;;;;5009727;28;20034;-35
2023/03/29 13:08:52;;;;;;;10.57;7.82;;;14.70;99.90;;;;;;5005372;28;20035;-35